createdAt,value
2018-02-03T00:00:11.137Z,4.27
2018-02-03T00:01:11.133Z,4.34
2018-02-03T00:02:11.129Z,4.41
2018-02-03T00:03:11.131Z,4.40
2018-02-03T00:04:11.130Z,4.36
2018-02-03T00:05:11.124Z,4.42
2018-02-03T00:06:11.120Z,4.42
2018-02-03T00:07:11.125Z,4.47
2018-02-03T00:08:11.130Z,4.42
2018-02-03T00:09:11.117Z,4.48
2018-02-03T00:10:11.196Z,4.50
2018-02-03T00:11:11.799Z,4.52
2018-02-03T00:12:11.113Z,4.44
2018-02-03T00:13:11.103Z,4.40
2018-02-03T00:14:11.103Z,4.45
2018-02-03T00:15:11.111Z,4.51
2018-02-03T00:16:11.106Z,4.40
2018-02-03T00:17:11.103Z,4.41
2018-02-03T00:18:11.114Z,4.45
2018-02-03T00:19:11.104Z,4.50
2018-02-03T00:20:11.101Z,4.41
2018-02-03T00:21:11.415Z,4.33
2018-02-03T00:22:11.100Z,4.24
2018-02-03T00:23:11.097Z,4.22
2018-02-03T00:24:11.091Z,4.26
2018-02-03T00:25:11.094Z,4.24
2018-02-03T00:26:11.084Z,4.27
2018-02-03T00:27:11.088Z,4.33
2018-02-03T00:28:11.683Z,4.40
2018-02-03T00:29:11.086Z,4.37
2018-02-03T00:30:11.082Z,4.37
2018-02-03T00:31:11.074Z,4.36
2018-02-03T00:32:11.082Z,4.30
2018-02-03T00:33:11.088Z,4.41
2018-02-03T00:34:11.081Z,4.36
2018-02-03T00:35:11.094Z,4.33
2018-02-03T00:36:11.074Z,4.32
2018-02-03T00:37:11.072Z,4.29
2018-02-03T00:38:11.059Z,4.26
2018-02-03T00:39:11.066Z,4.26
2018-02-03T00:40:11.062Z,4.34
2018-02-03T00:41:11.682Z,4.30
2018-02-03T00:42:11.055Z,4.40
2018-02-03T00:43:11.064Z,4.40
2018-02-03T00:44:11.058Z,4.33
2018-02-03T00:45:11.131Z,4.32
2018-02-03T00:46:11.056Z,4.34
2018-02-03T00:47:11.050Z,4.36
2018-02-03T00:48:11.054Z,4.36
2018-02-03T00:49:11.056Z,4.34
2018-02-03T00:50:11.052Z,4.32
2018-02-03T00:51:11.045Z,4.26
2018-02-03T00:52:11.031Z,4.33
2018-02-03T00:53:11.028Z,4.29
2018-02-03T00:54:11.123Z,4.34
2018-02-03T00:55:11.032Z,4.41
2018-02-03T00:56:11.032Z,4.33
2018-02-03T00:57:11.037Z,4.34
2018-02-03T00:58:11.036Z,4.36
2018-02-03T00:59:11.029Z,4.32
2018-02-03T01:00:11.030Z,4.34
2018-02-03T01:01:11.026Z,4.32
2018-02-03T01:02:11.031Z,4.26
2018-02-03T01:03:11.031Z,4.27
2018-02-03T01:04:11.028Z,4.24
2018-02-03T01:05:11.013Z,4.26
2018-02-03T01:06:11.010Z,4.23
2018-02-03T01:07:11.017Z,4.23
2018-02-03T01:08:11.026Z,4.36
2018-02-03T01:09:11.012Z,4.23
2018-02-03T01:10:11.011Z,4.36
2018-02-03T01:11:11.038Z,4.36
2018-02-03T01:12:11.007Z,4.32
2018-02-03T01:13:11.006Z,4.41
2018-02-03T01:14:11.228Z,4.33
2018-02-03T01:15:11.010Z,4.30
2018-02-03T01:16:11.002Z,4.41
2018-02-03T01:17:11.002Z,4.42
2018-02-03T01:18:10.993Z,4.36
2018-02-03T01:19:10.991Z,4.37
2018-02-03T01:20:12.390Z,4.36
2018-02-03T01:21:11.424Z,4.42
2018-02-03T01:22:10.989Z,4.34
2018-02-03T01:23:10.998Z,4.42
2018-02-03T01:24:11.024Z,4.37
2018-02-03T01:25:11.021Z,4.41
2018-02-03T01:26:10.985Z,4.27
2018-02-03T01:27:10.997Z,4.26
2018-02-03T01:28:10.978Z,4.30
2018-02-03T01:29:10.986Z,4.24
2018-02-03T01:30:10.974Z,4.24
2018-02-03T01:31:10.977Z,4.29
2018-02-03T01:32:11.008Z,4.12
2018-02-03T01:33:10.970Z,4.16
2018-02-03T01:34:10.973Z,4.16
2018-02-03T01:35:10.971Z,4.02
2018-02-03T01:36:10.968Z,4.02
2018-02-03T01:37:12.955Z,4.06
2018-02-03T01:38:10.967Z,4.00
2018-02-03T01:39:10.964Z,4.00
2018-02-03T01:40:10.962Z,4.04
2018-02-03T01:41:11.308Z,4.06
2018-02-03T01:42:10.950Z,4.02
2018-02-03T01:43:10.954Z,3.96
2018-02-03T01:44:10.949Z,3.93
2018-02-03T01:45:10.943Z,3.91
2018-02-03T01:46:10.956Z,3.90
2018-02-03T01:47:10.947Z,3.90
2018-02-03T01:48:10.942Z,3.86
2018-02-03T01:49:10.937Z,3.79
2018-02-03T01:50:10.940Z,3.76
2018-02-03T01:51:10.938Z,3.79
2018-02-03T01:52:10.935Z,3.76
2018-02-03T01:53:10.936Z,3.87
2018-02-03T01:54:10.935Z,3.93
2018-02-03T01:55:10.931Z,3.83
2018-02-03T01:56:10.919Z,3.75
2018-02-03T01:57:10.931Z,3.90
2018-02-03T01:58:10.930Z,3.80
2018-02-03T01:59:12.022Z,3.97
2018-02-03T02:00:10.917Z,3.73
2018-02-03T02:01:10.920Z,3.78
2018-02-03T02:02:10.918Z,3.91
2018-02-03T02:03:10.916Z,3.86
2018-02-03T02:04:10.919Z,3.79
2018-02-03T02:05:10.914Z,3.93
2018-02-03T02:06:10.942Z,3.80
2018-02-03T02:07:10.904Z,3.84
2018-02-03T02:08:10.903Z,3.91
2018-02-03T02:09:10.902Z,3.79
2018-02-03T02:10:10.887Z,3.86
2018-02-03T02:11:10.891Z,3.90
2018-02-03T02:12:11.024Z,3.91
2018-02-03T02:13:10.910Z,3.91
2018-02-03T02:14:10.879Z,3.91
2018-02-03T02:15:10.893Z,3.97
2018-02-03T02:16:10.887Z,4.00
2018-02-03T02:17:10.882Z,4.00
2018-02-03T02:18:10.883Z,3.93
2018-02-03T02:19:10.883Z,3.87
2018-02-03T02:20:10.876Z,3.84
2018-02-03T02:21:10.881Z,3.78
2018-02-03T02:22:10.879Z,3.75
2018-02-03T02:23:10.876Z,3.76
2018-02-03T02:24:10.881Z,3.70
2018-02-03T02:25:11.692Z,3.61
2018-02-03T02:26:10.867Z,3.66
2018-02-03T02:27:10.872Z,3.61
2018-02-03T02:28:10.886Z,3.66
2018-02-03T02:29:10.859Z,3.52
2018-02-03T02:30:10.852Z,3.70
2018-02-03T02:31:10.848Z,3.62
2018-02-03T02:32:10.854Z,3.75
2018-02-03T02:33:10.840Z,3.72
2018-02-03T02:34:10.854Z,3.62
2018-02-03T02:35:10.845Z,3.62
2018-02-03T02:36:10.846Z,3.61
2018-02-03T02:37:10.849Z,3.54
2018-02-03T02:38:10.841Z,3.61
2018-02-03T02:39:10.846Z,3.61
2018-02-03T02:40:10.836Z,3.65
2018-02-03T02:41:10.850Z,3.66
2018-02-03T02:42:10.836Z,3.50
2018-02-03T02:43:10.827Z,3.62
2018-02-03T02:44:10.835Z,3.61
2018-02-03T02:45:10.824Z,3.55
2018-02-03T02:46:10.840Z,3.65
2018-02-03T02:47:10.832Z,3.66
2018-02-03T02:48:10.825Z,3.62
2018-02-03T02:49:10.817Z,3.52
2018-02-03T02:50:10.819Z,3.65
2018-02-03T02:51:10.817Z,3.68
2018-02-03T02:52:10.802Z,3.54
2018-02-03T02:53:10.806Z,3.69
2018-02-03T02:54:10.810Z,3.60
2018-02-03T02:55:10.806Z,3.61
2018-02-03T02:56:10.799Z,3.65
2018-02-03T02:57:10.806Z,3.66
2018-02-03T02:58:10.798Z,3.62
2018-02-03T02:59:10.817Z,3.69
2018-02-03T03:00:10.793Z,3.58
2018-02-03T03:01:10.788Z,3.72
2018-02-03T03:02:10.798Z,3.61
2018-02-03T03:03:10.788Z,3.69
2018-02-03T03:04:10.784Z,3.60
2018-02-03T03:05:10.778Z,3.55
2018-02-03T03:06:10.783Z,3.58
2018-02-03T03:07:10.777Z,3.51
2018-02-03T03:08:10.780Z,3.55
2018-02-03T03:09:10.886Z,3.66
2018-02-03T03:10:10.772Z,3.70
2018-02-03T03:11:10.783Z,3.69
2018-02-03T03:12:10.775Z,3.70
2018-02-03T03:13:10.766Z,3.66
2018-02-03T03:14:10.758Z,3.65
2018-02-03T03:15:10.764Z,3.69
2018-02-03T03:16:10.765Z,3.57
2018-02-03T03:17:10.763Z,3.48
2018-02-03T03:18:10.766Z,3.51
2018-02-03T03:19:10.761Z,3.51
2018-02-03T03:20:10.757Z,3.58
2018-02-03T03:21:10.755Z,3.60
2018-02-03T03:22:10.748Z,3.50
2018-02-03T03:23:10.753Z,3.47
2018-02-03T03:24:10.747Z,3.39
2018-02-03T03:25:10.754Z,3.36
2018-02-03T03:26:10.748Z,3.35
2018-02-03T03:27:10.747Z,3.29
2018-02-03T03:28:10.733Z,3.32
2018-02-03T03:29:10.737Z,3.32
2018-02-03T03:30:10.733Z,3.32
2018-02-03T03:31:10.737Z,3.40
2018-02-03T03:32:10.726Z,3.48
2018-02-03T03:33:10.733Z,3.52
2018-02-03T03:34:10.722Z,3.51
2018-02-03T03:35:10.726Z,3.51
2018-02-03T03:36:10.722Z,3.62
2018-02-03T03:37:10.720Z,3.65
2018-02-03T03:38:10.721Z,3.66
2018-02-03T03:39:10.722Z,3.60
2018-02-03T03:40:10.717Z,3.43
2018-02-03T03:41:10.718Z,3.42
2018-02-03T03:42:10.714Z,3.42
2018-02-03T03:43:10.703Z,3.43
2018-02-03T03:44:10.705Z,3.39
2018-02-03T03:45:10.829Z,3.52
2018-02-03T03:46:10.708Z,3.45
2018-02-03T03:47:10.694Z,3.50
2018-02-03T03:48:10.713Z,3.45
2018-02-03T03:49:10.711Z,3.39
2018-02-03T03:50:10.698Z,3.35
2018-02-03T03:51:10.690Z,3.36
2018-02-03T03:52:10.687Z,3.48
2018-02-03T03:53:10.685Z,3.40
2018-02-03T03:54:10.703Z,3.51
2018-02-03T03:55:10.681Z,3.48
2018-02-03T03:56:10.720Z,3.50
2018-02-03T03:57:10.684Z,3.51
2018-02-03T03:58:10.671Z,3.54
2018-02-03T03:59:10.684Z,3.52
2018-02-03T04:00:10.686Z,3.62
2018-02-03T04:01:10.693Z,3.65
2018-02-03T04:02:10.678Z,3.62
2018-02-03T04:03:11.212Z,3.58
2018-02-03T04:04:10.667Z,3.61
2018-02-03T04:05:10.659Z,3.62
2018-02-03T04:06:10.682Z,3.62
2018-02-03T04:07:10.682Z,3.65
2018-02-03T04:08:10.666Z,3.60
2018-02-03T04:09:10.658Z,3.62
2018-02-03T04:10:10.660Z,3.50
2018-02-03T04:11:10.648Z,3.48
2018-02-03T04:12:10.646Z,3.50
2018-02-03T04:13:10.649Z,3.48
2018-02-03T04:14:10.648Z,3.51
2018-02-03T04:15:10.650Z,3.52
2018-02-03T04:16:10.653Z,3.51
2018-02-03T04:17:10.643Z,3.52
2018-02-03T04:18:10.642Z,3.50
2018-02-03T04:19:11.212Z,3.50
2018-02-03T04:20:10.630Z,3.62
2018-02-03T04:21:10.642Z,3.61
2018-02-03T04:22:10.631Z,3.60
2018-02-03T04:23:10.630Z,3.68
2018-02-03T04:24:10.635Z,3.50
2018-02-03T04:25:10.634Z,3.52
2018-02-03T04:26:10.626Z,3.48
2018-02-03T04:27:10.626Z,3.55
2018-02-03T04:28:10.620Z,3.57
2018-02-03T04:29:10.619Z,3.52
2018-02-03T04:30:10.653Z,3.45
2018-02-03T04:31:10.641Z,3.51
2018-02-03T04:32:10.628Z,3.50
2018-02-03T04:33:11.213Z,3.51
2018-02-03T04:34:10.611Z,3.51
2018-02-03T04:35:10.598Z,3.51
2018-02-03T04:36:10.601Z,3.52
2018-02-03T04:37:10.600Z,3.48
2018-02-03T04:38:10.602Z,3.51
2018-02-03T04:39:10.595Z,3.50
2018-02-03T04:40:10.598Z,3.45
2018-02-03T04:41:10.594Z,3.48
2018-02-03T04:42:10.587Z,3.54
2018-02-03T04:43:10.593Z,3.39
2018-02-03T04:44:10.585Z,3.45
2018-02-03T04:45:10.585Z,3.48
2018-02-03T04:46:10.591Z,3.45
2018-02-03T04:47:10.583Z,3.39
2018-02-03T04:48:10.584Z,3.36
2018-02-03T04:49:10.578Z,3.40
2018-02-03T04:50:10.581Z,3.42
2018-02-03T04:51:10.581Z,3.45
2018-02-03T04:52:10.578Z,3.40
2018-02-03T04:53:10.569Z,3.35
2018-02-03T04:54:10.582Z,3.48
2018-02-03T04:55:10.596Z,3.42
2018-02-03T04:56:10.561Z,3.36
2018-02-03T04:57:10.568Z,3.39
2018-02-03T04:58:10.564Z,3.47
2018-02-03T04:59:10.575Z,3.40
2018-02-03T05:00:10.562Z,3.40
2018-02-03T05:01:10.555Z,3.35
2018-02-03T05:02:10.570Z,3.35
2018-02-03T05:03:10.563Z,3.45
2018-02-03T05:04:10.553Z,3.39
2018-02-03T05:05:10.552Z,3.40
2018-02-03T05:06:10.551Z,3.47
2018-02-03T05:07:10.547Z,3.43
2018-02-03T05:08:10.539Z,3.35
2018-02-03T05:09:10.548Z,3.33
2018-02-03T05:10:10.566Z,3.43
2018-02-03T05:11:10.537Z,3.33
2018-02-03T05:12:10.543Z,3.40
2018-02-03T05:13:10.586Z,3.31
2018-02-03T05:14:10.611Z,3.35
2018-02-03T05:15:10.533Z,3.42
2018-02-03T05:16:11.219Z,3.40
2018-02-03T05:17:10.535Z,3.32
2018-02-03T05:18:10.525Z,3.33
2018-02-03T05:19:10.624Z,3.39
2018-02-03T05:20:10.521Z,3.32
2018-02-03T05:21:10.514Z,3.42
2018-02-03T05:22:10.516Z,3.36
2018-02-03T05:23:10.520Z,3.28
2018-02-03T05:24:10.516Z,3.31
2018-02-03T05:25:10.514Z,3.28
2018-02-03T05:26:10.512Z,3.29
2018-02-03T05:27:10.511Z,3.31
2018-02-03T05:28:10.511Z,3.28
2018-02-03T05:29:10.502Z,3.33
2018-02-03T05:30:10.503Z,3.35
2018-02-03T05:31:10.502Z,3.31
2018-02-03T05:32:10.514Z,3.35
2018-02-03T05:33:10.496Z,3.28
2018-02-03T05:34:10.497Z,3.36
2018-02-03T05:35:10.495Z,3.39
2018-02-03T05:36:10.492Z,3.31
2018-02-03T05:37:10.493Z,3.45
2018-02-03T05:38:10.491Z,3.32
2018-02-03T05:39:10.484Z,3.31
2018-02-03T05:40:10.483Z,3.29
2018-02-03T05:41:10.485Z,3.15
2018-02-03T05:42:10.510Z,3.29
2018-02-03T05:43:10.486Z,3.33
2018-02-03T05:44:10.466Z,3.24
2018-02-03T05:45:10.486Z,3.20
2018-02-03T05:46:10.468Z,3.23
2018-02-03T05:47:10.474Z,3.31
2018-02-03T05:48:10.470Z,3.24
2018-02-03T05:49:10.460Z,3.31
2018-02-03T05:50:10.469Z,3.23
2018-02-03T05:51:10.457Z,3.24
2018-02-03T05:52:10.467Z,3.29
2018-02-03T05:53:10.452Z,3.18
2018-02-03T05:54:10.471Z,3.11
2018-02-03T05:55:10.448Z,3.14
2018-02-03T05:56:10.457Z,3.15
2018-02-03T05:57:10.446Z,3.17
2018-02-03T05:58:10.448Z,3.11
2018-02-03T05:59:10.448Z,3.06
2018-02-03T06:00:10.457Z,3.08
2018-02-03T06:01:10.439Z,3.17
2018-02-03T06:02:10.436Z,3.11
2018-02-03T06:03:10.444Z,3.11
2018-02-03T06:04:10.430Z,3.11
2018-02-03T06:05:10.435Z,3.08
2018-02-03T06:06:10.433Z,3.08
2018-02-03T06:07:10.436Z,3.10
2018-02-03T06:08:10.428Z,3.14
2018-02-03T06:09:10.421Z,3.15
2018-02-03T06:10:10.474Z,3.10
2018-02-03T06:11:10.422Z,3.05
2018-02-03T06:12:10.418Z,3.08
2018-02-03T06:13:10.426Z,3.02
2018-02-03T06:14:10.417Z,3.03
2018-02-03T06:15:10.500Z,2.97
2018-02-03T06:16:10.411Z,2.99
2018-02-03T06:17:10.413Z,2.95
2018-02-03T06:18:10.402Z,2.97
2018-02-03T06:19:10.402Z,2.89
2018-02-03T06:20:10.397Z,2.93
2018-02-03T06:21:10.401Z,2.97
2018-02-03T06:22:10.410Z,3.03
2018-02-03T06:23:10.400Z,2.97
2018-02-03T06:24:10.395Z,3.14
2018-02-03T06:25:10.413Z,2.93
2018-02-03T06:26:10.388Z,2.97
2018-02-03T06:27:10.394Z,3.05
2018-02-03T06:28:10.390Z,2.99
2018-02-03T06:29:10.408Z,2.96
2018-02-03T06:30:10.475Z,2.96
2018-02-03T06:31:10.377Z,2.87
2018-02-03T06:32:10.379Z,2.82
2018-02-03T06:33:10.375Z,2.87
2018-02-03T06:34:10.375Z,2.95
2018-02-03T06:35:10.376Z,2.92
2018-02-03T06:36:10.367Z,2.90
2018-02-03T06:37:10.362Z,2.89
2018-02-03T06:38:10.377Z,2.92
2018-02-03T06:39:10.374Z,2.89
2018-02-03T06:40:10.362Z,2.93
2018-02-03T06:41:10.363Z,2.89
2018-02-03T06:42:10.362Z,2.92
2018-02-03T06:43:10.352Z,2.93
2018-02-03T06:44:11.236Z,2.95
2018-02-03T06:45:10.346Z,2.99
2018-02-03T06:46:10.345Z,2.89
2018-02-03T06:47:10.353Z,2.92
2018-02-03T06:48:10.349Z,2.87
2018-02-03T06:49:10.350Z,2.96
2018-02-03T06:50:10.366Z,2.89
2018-02-03T06:51:10.342Z,2.89
2018-02-03T06:52:10.348Z,2.97
2018-02-03T06:53:10.340Z,3.05
2018-02-03T06:54:10.331Z,3.13
2018-02-03T06:55:10.341Z,3.24
2018-02-03T06:56:10.335Z,3.32
2018-02-03T06:57:10.332Z,3.14
2018-02-03T06:58:10.320Z,3.24
2018-02-03T06:59:10.321Z,3.18
2018-02-03T07:00:10.318Z,3.18
2018-02-03T07:01:10.318Z,3.23
2018-02-03T07:02:10.321Z,3.29
2018-02-03T07:03:10.349Z,3.20
2018-02-03T07:04:10.304Z,3.15
2018-02-03T07:05:10.314Z,3.28
2018-02-03T07:06:10.312Z,3.13
2018-02-03T07:07:10.313Z,3.10
2018-02-03T07:08:10.312Z,3.08
2018-02-03T07:09:10.298Z,3.10
2018-02-03T07:10:10.302Z,3.11
2018-02-03T07:11:10.295Z,3.14
2018-02-03T07:12:10.288Z,3.15
2018-02-03T07:13:10.321Z,3.14
2018-02-03T07:14:10.289Z,3.21
2018-02-03T07:15:10.289Z,3.24
2018-02-03T07:16:10.291Z,3.23
2018-02-03T07:17:10.294Z,3.31
2018-02-03T07:18:10.288Z,3.26
2018-02-03T07:19:10.285Z,3.26
2018-02-03T07:20:10.284Z,3.28
2018-02-03T07:21:10.279Z,3.33
2018-02-03T07:22:10.280Z,3.29
2018-02-03T07:23:10.265Z,3.23
2018-02-03T07:24:10.398Z,3.31
2018-02-03T07:25:10.343Z,3.29
2018-02-03T07:26:10.286Z,3.36
2018-02-03T07:27:10.266Z,3.18
2018-02-03T07:28:10.269Z,3.21
2018-02-03T07:29:10.273Z,3.26
2018-02-03T07:30:10.271Z,3.32
2018-02-03T07:31:10.315Z,3.40
2018-02-03T07:32:10.251Z,3.42
2018-02-03T07:33:10.256Z,3.40
2018-02-03T07:34:10.266Z,3.47
2018-02-03T07:35:10.283Z,3.48
2018-02-03T07:36:10.250Z,3.39
2018-02-03T07:37:10.243Z,3.31
2018-02-03T07:38:10.292Z,3.28
2018-02-03T07:39:10.250Z,3.35
2018-02-03T07:40:10.254Z,3.50
2018-02-03T07:41:10.741Z,3.33
2018-02-03T07:42:10.237Z,3.36
2018-02-03T07:43:10.255Z,3.35
2018-02-03T07:44:10.237Z,3.40
2018-02-03T07:45:10.504Z,3.35
2018-02-03T07:46:10.222Z,3.40
2018-02-03T07:47:10.230Z,3.36
2018-02-03T07:48:10.216Z,3.36
2018-02-03T07:49:10.214Z,3.45
2018-02-03T07:50:10.232Z,3.48
2018-02-03T07:51:11.250Z,3.54
2018-02-03T07:52:10.213Z,3.52
2018-02-03T07:53:10.215Z,3.50
2018-02-03T07:54:10.219Z,3.58
2018-02-03T07:55:10.222Z,3.62
2018-02-03T07:56:10.207Z,3.68
2018-02-03T07:57:10.224Z,3.66
2018-02-03T07:58:10.283Z,3.62
2018-02-03T07:59:10.208Z,3.73
2018-02-03T08:00:10.196Z,3.66
2018-02-03T08:01:10.212Z,3.73
2018-02-03T08:02:10.199Z,3.87
2018-02-03T08:03:10.215Z,3.79
2018-02-03T08:04:10.209Z,3.79
2018-02-03T08:05:10.257Z,3.90
2018-02-03T08:06:10.301Z,3.91
2018-02-03T08:07:10.187Z,3.98
2018-02-03T08:08:10.192Z,3.98
2018-02-03T08:09:10.187Z,3.98
2018-02-03T08:10:10.746Z,3.94
2018-02-03T08:11:10.181Z,4.02
2018-02-03T08:12:10.187Z,3.96
2018-02-03T08:13:10.166Z,4.02
2018-02-03T08:14:10.174Z,3.96
2018-02-03T08:15:10.170Z,3.93
2018-02-03T08:16:10.181Z,3.97
2018-02-03T08:17:10.168Z,3.88
2018-02-03T08:18:10.173Z,3.90
2018-02-03T08:19:10.184Z,3.93
2018-02-03T08:20:10.168Z,3.84
2018-02-03T08:21:10.188Z,3.78
2018-02-03T08:22:10.164Z,3.78
2018-02-03T08:23:10.165Z,3.60
2018-02-03T08:24:10.158Z,3.62
2018-02-03T08:25:10.166Z,3.70
2018-02-03T08:26:10.187Z,3.68
2018-02-03T08:27:10.167Z,3.61
2018-02-03T08:28:10.750Z,3.72
2018-02-03T08:29:10.149Z,3.78
2018-02-03T08:30:10.162Z,3.75
2018-02-03T08:31:10.169Z,3.83
2018-02-03T08:32:10.145Z,3.80
2018-02-03T08:33:10.173Z,3.97
2018-02-03T08:34:10.144Z,3.91
2018-02-03T08:35:10.147Z,3.86
2018-02-03T08:36:10.154Z,3.88
2018-02-03T08:37:10.170Z,3.62
2018-02-03T08:38:10.761Z,3.75
2018-02-03T08:39:10.168Z,3.76
2018-02-03T08:40:10.138Z,3.75
2018-02-03T08:41:10.195Z,3.72
2018-02-03T08:42:10.158Z,3.75
2018-02-03T08:43:10.122Z,3.72
2018-02-03T08:44:10.129Z,3.72
2018-02-03T08:45:10.131Z,3.73
2018-02-03T08:46:10.138Z,3.72
2018-02-03T08:47:10.160Z,3.75
2018-02-03T08:48:10.125Z,3.83
2018-02-03T08:49:10.122Z,3.83
2018-02-03T08:50:10.738Z,3.93
2018-02-03T08:51:10.198Z,3.88
2018-02-03T08:52:10.125Z,3.86
2018-02-03T08:53:10.113Z,3.93
2018-02-03T08:54:10.125Z,3.97
2018-02-03T08:55:10.111Z,3.96
2018-02-03T08:56:10.113Z,3.94
2018-02-03T08:57:10.123Z,3.83
2018-02-03T08:58:10.100Z,3.79
2018-02-03T08:59:10.109Z,3.76
2018-02-03T09:00:10.096Z,3.78
2018-02-03T09:01:10.110Z,3.76
2018-02-03T09:02:10.097Z,3.79
2018-02-03T09:03:10.110Z,3.84
2018-02-03T09:04:10.096Z,3.79
2018-02-03T09:05:10.102Z,3.87
2018-02-03T09:06:10.100Z,3.94
2018-02-03T09:07:10.757Z,3.97
2018-02-03T09:08:10.101Z,4.02
2018-02-03T09:09:10.108Z,4.00
2018-02-03T09:10:10.093Z,4.05
2018-02-03T09:11:10.137Z,4.04
2018-02-03T09:12:10.089Z,4.06
2018-02-03T09:13:10.081Z,4.16
2018-02-03T09:14:10.088Z,4.05
2018-02-03T09:15:10.084Z,4.02
2018-02-03T09:16:10.093Z,4.22
2018-02-03T09:17:10.088Z,4.02
2018-02-03T09:18:10.087Z,4.20
2018-02-03T09:19:10.073Z,4.12
2018-02-03T09:20:10.088Z,4.22
2018-02-03T09:21:10.072Z,4.09
2018-02-03T09:22:10.291Z,4.24
2018-02-03T09:23:10.077Z,4.26
2018-02-03T09:24:10.064Z,4.33
2018-02-03T09:25:10.208Z,4.41
2018-02-03T09:26:10.072Z,4.30
2018-02-03T09:27:10.081Z,4.37
2018-02-03T09:28:10.065Z,4.40
2018-02-03T09:29:10.052Z,4.37
2018-02-03T09:30:10.070Z,4.37
2018-02-03T09:31:10.063Z,4.41
2018-02-03T09:32:10.062Z,4.47
2018-02-03T09:33:10.065Z,4.48
2018-02-03T09:34:10.058Z,4.54
2018-02-03T09:35:10.144Z,4.45
2018-02-03T09:36:10.067Z,4.44
2018-02-03T09:37:10.064Z,4.42
2018-02-03T09:38:10.083Z,4.37
2018-02-03T09:39:10.051Z,4.37
2018-02-03T09:40:10.048Z,4.37
2018-02-03T09:41:10.061Z,4.41
2018-02-03T09:42:10.055Z,4.37
2018-02-03T09:43:10.169Z,4.44
2018-02-03T09:44:10.281Z,4.48
2018-02-03T09:45:10.051Z,4.47
2018-02-03T09:46:10.051Z,4.50
2018-02-03T09:47:10.051Z,4.72
2018-02-03T09:48:10.209Z,4.73
2018-02-03T09:49:10.769Z,4.63
2018-02-03T09:50:10.044Z,4.65
2018-02-03T09:51:10.035Z,4.66
2018-02-03T09:52:10.039Z,4.54
2018-02-03T09:53:10.037Z,4.52
2018-02-03T09:54:10.039Z,4.73
2018-02-03T09:55:10.089Z,4.73
2018-02-03T09:56:10.031Z,4.78
2018-02-03T09:57:10.038Z,4.80
2018-02-03T09:58:10.270Z,4.99
2018-02-03T09:59:10.025Z,5.04
2018-02-03T10:00:10.769Z,4.99
2018-02-03T10:01:10.091Z,5.18
2018-02-03T10:02:10.030Z,5.31
2018-02-03T10:03:10.036Z,5.22
2018-02-03T10:04:10.023Z,5.35
2018-02-03T10:05:10.019Z,5.20
2018-02-03T10:06:10.036Z,5.36
2018-02-03T10:07:10.030Z,5.35
2018-02-03T10:08:10.042Z,5.38
2018-02-03T10:09:10.059Z,5.42
2018-02-03T10:10:10.032Z,5.65
2018-02-03T10:11:10.039Z,5.64
2018-02-03T10:12:10.014Z,5.58
2018-02-03T10:13:10.033Z,5.72
2018-02-03T10:14:10.016Z,5.76
2018-02-03T10:15:10.010Z,5.67
2018-02-03T10:16:10.017Z,5.78
2018-02-03T10:17:10.029Z,5.74
2018-02-03T10:18:10.008Z,5.68
2018-02-03T10:19:10.034Z,5.67
2018-02-03T10:20:10.011Z,5.65
2018-02-03T10:21:10.022Z,5.71
2018-02-03T10:22:10.123Z,5.74
2018-02-03T10:23:10.022Z,5.67
2018-02-03T10:24:10.016Z,5.58
2018-02-03T10:25:10.008Z,5.68
2018-02-03T10:26:10.014Z,5.56
2018-02-03T10:27:10.007Z,5.65
2018-02-03T10:28:10.016Z,5.75
2018-02-03T10:29:10.013Z,5.74
2018-02-03T10:30:10.007Z,5.86
2018-02-03T10:31:10.014Z,6.04
2018-02-03T10:32:10.017Z,6.14
2018-02-03T10:33:10.025Z,6.11
2018-02-03T10:34:10.011Z,6.21
2018-02-03T10:35:10.007Z,6.51
2018-02-03T10:36:10.008Z,6.79
2018-02-03T10:37:10.006Z,7.06
2018-02-03T10:38:10.014Z,6.97
2018-02-03T10:39:10.000Z,7.40
2018-02-03T10:40:09.997Z,7.79
2018-02-03T10:41:10.001Z,7.90
2018-02-03T10:42:10.027Z,7.86
2018-02-03T10:43:10.002Z,7.58
2018-02-03T10:44:10.006Z,7.61
2018-02-03T10:45:10.007Z,7.57
2018-02-03T10:46:10.096Z,7.39
2018-02-03T10:47:10.134Z,6.97
2018-02-03T10:48:10.214Z,6.98
2018-02-03T10:49:10.002Z,6.81
2018-02-03T10:50:10.011Z,6.85
2018-02-03T10:51:10.031Z,6.77
2018-02-03T10:52:10.022Z,6.77
2018-02-03T10:53:10.019Z,6.74
2018-02-03T10:54:10.038Z,6.80
2018-02-03T10:55:10.119Z,7.21
2018-02-03T10:56:10.030Z,7.50
2018-02-03T10:57:10.087Z,8.08
2018-02-03T10:58:10.034Z,9.04
2018-02-03T10:59:10.026Z,9.96
2018-02-03T11:00:10.017Z,10.38
2018-02-03T11:01:10.041Z,10.20
2018-02-03T11:02:10.042Z,9.99
2018-02-03T11:03:10.023Z,9.96
2018-02-03T11:04:10.027Z,9.43
2018-02-03T11:05:10.024Z,9.13
2018-02-03T11:06:10.025Z,8.79
2018-02-03T11:07:10.035Z,8.41
2018-02-03T11:08:10.138Z,9.13
2018-02-03T11:09:10.035Z,9.43
2018-02-03T11:10:10.038Z,9.60
2018-02-03T11:11:10.049Z,9.02
2018-02-03T11:12:10.228Z,8.45
2018-02-03T11:13:10.043Z,8.10
2018-02-03T11:14:10.046Z,7.75
2018-02-03T11:15:10.046Z,7.83
2018-02-03T11:16:10.053Z,8.18
2018-02-03T11:17:10.055Z,8.23
2018-02-03T11:18:10.071Z,8.40
2018-02-03T11:19:10.074Z,8.89
2018-02-03T11:20:10.052Z,9.11
2018-02-03T11:21:10.065Z,8.74
2018-02-03T11:22:10.087Z,8.45
2018-02-03T11:23:10.064Z,8.47
2018-02-03T11:24:10.070Z,8.61
2018-02-03T11:25:10.072Z,8.73
2018-02-03T11:26:10.081Z,8.70
2018-02-03T11:27:10.080Z,8.71
2018-02-03T11:28:10.083Z,8.43
2018-02-03T11:29:10.081Z,8.23
2018-02-03T11:30:10.106Z,8.22
2018-02-03T11:31:10.113Z,7.87
2018-02-03T11:32:10.088Z,7.82
2018-02-03T11:33:10.106Z,7.80
2018-02-03T11:34:10.091Z,7.74
2018-02-03T11:35:10.133Z,8.07
2018-02-03T11:36:10.802Z,8.16
2018-02-03T11:37:10.108Z,8.08
2018-02-03T11:38:10.100Z,8.07
2018-02-03T11:39:10.114Z,8.30
2018-02-03T11:40:10.123Z,8.92
2018-02-03T11:41:10.115Z,9.31
2018-02-03T11:42:10.112Z,9.20
2018-02-03T11:43:10.126Z,8.95
2018-02-03T11:44:10.128Z,8.84
2018-02-03T11:45:10.120Z,8.86
2018-02-03T11:46:10.138Z,8.50
2018-02-03T11:47:10.137Z,8.61
2018-02-03T11:48:10.138Z,8.44
2018-02-03T11:49:10.146Z,8.29
2018-02-03T11:50:10.135Z,8.08
2018-02-03T11:51:10.144Z,7.79
2018-02-03T11:52:10.146Z,7.61
2018-02-03T11:53:10.298Z,7.95
2018-02-03T11:54:10.147Z,8.76
2018-02-03T11:55:10.145Z,9.33
2018-02-03T11:56:10.181Z,10.01
2018-02-03T11:57:10.157Z,10.20
2018-02-03T11:58:10.164Z,10.32
2018-02-03T11:59:10.802Z,10.64
2018-02-03T12:00:10.158Z,10.44
2018-02-03T12:01:10.187Z,11.11
2018-02-03T12:02:10.160Z,11.64
2018-02-03T12:03:10.164Z,11.69
2018-02-03T12:04:10.251Z,11.70
2018-02-03T12:05:10.168Z,11.70
2018-02-03T12:06:10.221Z,11.27
2018-02-03T12:07:10.176Z,11.40
2018-02-03T12:08:10.181Z,11.39
2018-02-03T12:09:10.188Z,10.51
2018-02-03T12:10:10.192Z,9.72
2018-02-03T12:11:10.243Z,9.04
2018-02-03T12:12:10.203Z,8.59
2018-02-03T12:13:10.193Z,8.53
2018-02-03T12:14:10.193Z,8.53
2018-02-03T12:15:10.205Z,8.50
2018-02-03T12:16:10.211Z,8.44
2018-02-03T12:17:10.355Z,8.40
2018-02-03T12:18:10.217Z,8.18
2018-02-03T12:19:10.214Z,7.89
2018-02-03T12:20:10.217Z,7.85
2018-02-03T12:21:10.229Z,7.90
2018-02-03T12:22:10.232Z,7.83
2018-02-03T12:23:10.221Z,7.86
2018-02-03T12:24:10.227Z,7.85
2018-02-03T12:25:10.363Z,7.74
2018-02-03T12:26:10.293Z,7.61
2018-02-03T12:27:10.253Z,7.43
2018-02-03T12:28:10.240Z,7.50
2018-02-03T12:29:10.257Z,7.50
2018-02-03T12:30:10.346Z,7.43
2018-02-03T12:31:10.259Z,7.45
2018-02-03T12:32:10.247Z,7.55
2018-02-03T12:33:10.257Z,7.53
2018-02-03T12:34:10.266Z,7.31
2018-02-03T12:35:10.253Z,7.21
2018-02-03T12:36:10.256Z,7.12
2018-02-03T12:37:10.262Z,6.98
2018-02-03T12:38:10.262Z,6.98
2018-02-03T12:39:10.265Z,6.80
2018-02-03T12:40:10.254Z,6.97
2018-02-03T12:41:10.265Z,6.99
2018-02-03T12:42:10.819Z,7.15
2018-02-03T12:43:10.266Z,6.92
2018-02-03T12:44:10.266Z,6.67
2018-02-03T12:45:10.362Z,6.88
2018-02-03T12:46:10.261Z,7.02
2018-02-03T12:47:10.276Z,6.98
2018-02-03T12:48:10.290Z,6.95
2018-02-03T12:49:10.274Z,6.98
2018-02-03T12:50:10.276Z,6.95
2018-02-03T12:51:10.310Z,6.92
2018-02-03T12:52:10.280Z,6.92
2018-02-03T12:53:10.270Z,6.95
2018-02-03T12:54:10.274Z,6.99
2018-02-03T12:55:10.277Z,6.88
2018-02-03T12:56:10.304Z,6.87
2018-02-03T12:57:10.277Z,6.85
2018-02-03T12:58:10.283Z,6.87
2018-02-03T12:59:10.283Z,6.88
2018-02-03T13:00:10.286Z,6.79
2018-02-03T13:01:10.291Z,6.80
2018-02-03T13:02:10.292Z,6.91
2018-02-03T13:03:10.295Z,6.99
2018-02-03T13:04:10.286Z,6.98
2018-02-03T13:05:10.296Z,6.99
2018-02-03T13:06:10.294Z,6.91
2018-02-03T13:07:10.295Z,6.88
2018-02-03T13:08:10.279Z,6.88
2018-02-03T13:09:10.280Z,6.94
2018-02-03T13:10:10.301Z,6.98
2018-02-03T13:11:10.303Z,6.99
2018-02-03T13:12:10.295Z,7.03
2018-02-03T13:13:10.294Z,7.06
2018-02-03T13:14:10.298Z,7.02
2018-02-03T13:15:10.296Z,6.99
2018-02-03T13:16:10.288Z,6.94
2018-02-03T13:17:10.296Z,7.05